Time;durP1;ratioP1;P1;durP2;ratioP2;P2;SDS_P1;SDS_P2;PMS_P1;PMS_P2;Temp;Humidity;BMP_temperature;BMP_pressure;BME280_temperature;BME280_humidity;BME280_pressure;Samples;Min_cycle;Max_cycle;Signal;HPM_P1;HPM_P2
2022/10/30 00:01:04;;;;;;;23.13;11.93;;;;;;;;;;6100209;23;20112;-82
2022/10/30 00:03:31;;;;;;;20.42;11.82;;;;;;;;;;6100414;23;20025;-81
2022/10/30 00:05:57;;;;;;;25.33;12.70;;;;;;;;;;6076396;23;20014;-81
2022/10/30 00:08:26;;;;;;;19.23;10.50;;;;;;;;;;6076524;23;20335;-81
2022/10/30 00:10:53;;;;;;;24.25;12.55;;;;;;;;;;6100322;23;20082;-81
2022/10/30 00:13:19;;;;;;;29.33;13.23;;;14.40;99.90;;;;;;6100416;23;20081;-81
2022/10/30 00:15:46;;;;;;;22.88;12.32;;;;;;;;;;6100237;23;20463;-81
2022/10/30 00:18:12;;;;;;;25.20;12.25;;;14.40;99.90;;;;;;6100215;23;20024;-81
2022/10/30 00:20:38;;;;;;;22.65;11.85;;;;;;;;;;6076037;23;20025;-81
2022/10/30 00:23:05;;;;;;;27.63;14.43;;;;;;;;;;6099979;23;20100;-81
2022/10/30 00:25:30;;;;;;;23.45;11.73;;;14.00;99.90;;;;;;6100293;23;20022;-81
2022/10/30 00:27:57;;;;;;;23.05;12.73;;;;;;;;;;6076406;23;20081;-81
2022/10/30 00:30:23;;;;;;;23.02;12.10;;;;;;;;;;6076143;23;20106;-81
2022/10/30 00:32:49;;;;;;;23.35;12.48;;;;;;;;;;6076209;23;20383;-81
2022/10/30 00:35:15;;;;;;;18.95;11.10;;;;;;;;;;6075943;23;20096;-81
2022/10/30 00:37:41;;;;;;;17.23;11.07;;;;;;;;;;6076121;23;20028;-81
2022/10/30 00:40:13;;;;;;;19.77;11.27;;;14.40;99.90;;;;;;6076010;23;20077;-81
2022/10/30 00:42:39;;;;;;;22.98;11.40;;;;;;;;;;6075895;23;20072;-81
2022/10/30 00:45:05;;;;;;;18.60;11.18;;;14.10;99.90;;;;;;6099848;23;20014;-81
2022/10/30 00:47:36;;;;;;;22.48;11.20;;;14.40;99.90;;;;;;6100125;23;20455;-81
2022/10/30 00:50:05;;;;;;;17.42;11.35;;;;;;;;;;6099942;23;20029;-81
2022/10/30 00:52:33;;;;;;;20.13;12.35;;;;;;;;;;6099889;23;20029;-82
2022/10/30 00:55:06;;;;;;;21.17;11.07;;;14.40;99.90;;;;;;6075768;23;20017;-82
2022/10/30 00:57:32;;;;;;;22.83;12.30;;;;;;;;;;6075848;23;20471;-81
2022/10/30 00:59:58;;;;;;;20.35;11.27;;;;;;;;;;6099649;23;20459;-82
2022/10/30 01:02:25;;;;;;;32.58;11.35;;;14.40;99.90;;;;;;6099834;23;20021;-82
2022/10/30 01:04:52;;;;;;;29.75;11.70;;;;;;;;;;6099697;23;20037;-81
2022/10/30 01:07:18;;;;;;;22.40;12.00;;;;;;;;;;6075878;23;20018;-82
2022/10/30 01:09:45;;;;;;;27.15;11.98;;;14.40;99.90;;;;;;6076106;23;20451;-82
2022/10/30 01:12:11;;;;;;;21.35;12.43;;;;;;;;;;6075691;23;20029;-82
2022/10/30 01:14:42;;;;;;;17.30;11.60;;;14.20;99.90;;;;;;6075434;23;20018;-82
2022/10/30 01:17:14;;;;;;;21.20;12.10;;;;;;;;;;6075695;23;20076;-82
2022/10/30 01:19:49;;;;;;;21.17;11.57;;;;;;;;;;6099568;23;20459;-82
2022/10/30 01:22:36;;;;;;;22.73;11.48;;;14.30;99.90;;;;;;6099427;23;20069;-82
2022/10/30 01:25:05;;;;;;;25.63;11.82;;;;;;;;;;6075427;23;20030;-82
2022/10/30 01:27:57;;;;;;;16.38;11.43;;;14.30;99.90;;;;;;6075522;23;20387;-82
2022/10/30 01:30:26;;;;;;;18.95;11.85;;;;;;;;;;6075684;23;20463;-83
2022/10/30 01:33:04;;;;;;;20.00;11.38;;;14.20;99.90;;;;;;6099805;23;20018;-82
2022/10/30 01:35:46;;;;;;;18.52;11.02;;;14.20;99.90;;;;;;6075185;23;20347;-83
2022/10/30 01:38:33;;;;;;;32.10;11.45;;;14.20;99.90;;;;;;6075564;23;20022;-83
2022/10/30 01:40:59;;;;;;;20.50;11.30;;;;;;;;;;6099350;23;20022;-83
2022/10/30 01:43:25;;;;;;;30.38;12.00;;;;;;;;;;6099318;23;20448;-82
2022/10/30 01:46:12;;;;;;;21.90;11.85;;;14.20;99.90;;;;;;6099523;23;20025;-83
2022/10/30 01:48:52;;;;;;;20.73;11.85;;;14.20;99.90;;;;;;6099610;23;20018;-82
2022/10/30 01:51:30;;;;;;;25.60;12.60;;;14.10;99.90;;;;;;6075689;23;20029;-82
2022/10/30 01:54:31;;;;;;;21.70;11.57;;;14.20;99.90;;;;;;6099222;23;20018;-82
2022/10/30 01:57:30;;;;;;;21.63;11.73;;;14.10;99.90;;;;;;6099134;23;20022;-82
2022/10/30 02:00:08;;;;;;;26.67;12.30;;;13.90;99.90;;;;;;6099198;23;20021;-82
2022/10/30 02:02:34;;;;;;;20.45;11.77;;;;;;;;;;6099112;23;20101;-82
2022/10/30 02:05:01;;;;;;;20.95;12.85;;;14.00;99.90;;;;;;6075208;23;20045;-82
2022/10/30 02:07:27;;;;;;;20.35;11.20;;;;;;;;;;6074898;23;20084;-83
2022/10/30 02:09:53;;;;;;;22.13;12.50;;;14.00;99.90;;;;;;6075265;23;20519;-82
2022/10/30 02:12:20;;;;;;;20.20;12.57;;;13.90;99.90;;;;;;6075246;23;20018;-82
2022/10/30 02:14:55;;;;;;;17.20;11.90;;;14.00;99.90;;;;;;6074928;23;20014;-81
2022/10/30 02:17:21;;;;;;;26.92;12.30;;;;;;;;;;6074950;23;20033;-82
2022/10/30 02:19:47;;;;;;;18.05;11.80;;;;;;;;;;6098827;23;20024;-81
2022/10/30 02:22:13;;;;;;;20.30;12.38;;;;;;;;;;6098897;23;20101;-82
2022/10/30 02:24:39;;;;;;;24.35;11.98;;;;;;;;;;6099102;23;20098;-82
2022/10/30 02:27:05;;;;;;;19.10;12.13;;;;;;;;;;6075044;23;20022;-82
2022/10/30 02:29:31;;;;;;;16.45;12.13;;;;;;;;;;6098740;23;20018;-82
2022/10/30 02:31:57;;;;;;;20.65;13.25;;;;;;;;;;6099132;23;20025;-82
2022/10/30 02:34:23;;;;;;;24.52;11.77;;;;;;;;;;6098755;23;20022;-82
2022/10/30 02:36:49;;;;;;;18.27;11.75;;;;;;;;;;6098958;23;20018;-82
2022/10/30 02:39:15;;;;;;;19.88;11.63;;;;;;;;;;6098880;23;20028;-82
2022/10/30 02:41:41;;;;;;;31.35;12.77;;;;;;;;;;6074851;23;20022;-82
2022/10/30 02:44:07;;;;;;;20.98;11.82;;;;;;;;;;6074888;23;20093;-82
2022/10/30 02:46:33;;;;;;;22.10;11.80;;;;;;;;;;6098710;23;20419;-82
2022/10/30 02:48:59;;;;;;;24.60;11.88;;;;;;;;;;6074852;23;20401;-82
2022/10/30 02:51:25;;;;;;;21.95;11.63;;;;;;;;;;6098627;23;20014;-82
2022/10/30 02:53:51;;;;;;;24.70;12.63;;;;;;;;;;6098860;23;20482;-83
2022/10/30 02:56:17;;;;;;;20.02;12.65;;;;;;;;;;6074920;23;20108;-82
2022/10/30 02:58:43;;;;;;;21.73;11.77;;;;;;;;;;6074781;23;20025;-82
2022/10/30 03:01:13;;;;;;;23.45;12.20;;;13.90;99.90;;;;;;6074688;23;20022;-82
2022/10/30 03:03:39;;;;;;;22.20;14.20;;;;;;;;;;6074723;23;20018;-82
2022/10/30 03:06:06;;;;;;;23.00;12.57;;;13.90;99.90;;;;;;6074645;23;20344;-82
2022/10/30 03:08:33;;;;;;;20.05;11.88;;;;;;;;;;6099050;23;20014;-82
2022/10/30 03:11:00;;;;;;;27.75;12.98;;;13.90;99.90;;;;;;6098694;23;20025;-82
2022/10/30 03:13:27;;;;;;;20.52;12.05;;;;;;;;;;6098593;23;20029;-82
2022/10/30 03:16:02;;;;;;;20.73;11.70;;;13.80;99.90;;;;;;6074738;23;20153;-82
2022/10/30 03:18:28;;;;;;;22.10;11.85;;;;;;;;;;6098504;23;20024;-83
2022/10/30 03:21:02;;;;;;;20.13;11.68;;;13.70;99.90;;;;;;6098483;23;20049;-82
2022/10/30 03:23:29;;;;;;;26.20;13.45;;;;;;;;;;6074553;23;20096;-82
2022/10/30 03:25:55;;;;;;;19.05;11.25;;;;;;;;;;6098571;23;20506;-82
2022/10/30 03:28:23;;;;;;;24.85;12.75;;;13.80;99.90;;;;;;6098601;23;20388;-82
2022/10/30 03:30:50;;;;;;;25.67;11.95;;;13.70;99.90;;;;;;6098820;23;20026;-82
2022/10/30 03:33:16;;;;;;;26.45;11.93;;;;;;;;;;6098162;23;20014;-82
2022/10/30 03:35:43;;;;;;;27.33;13.02;;;13.60;99.90;;;;;;6074527;23;20025;-82
2022/10/30 03:38:10;;;;;;;21.45;11.90;;;;;;;;;;6074718;23;20018;-82
2022/10/30 03:40:36;;;;;;;20.05;11.82;;;;;;;;;;6074331;23;20024;-82
2022/10/30 03:43:02;;;;;;;22.10;12.60;;;;;;;;;;6074575;23;20018;-81
2022/10/30 03:45:28;;;;;;;26.35;12.60;;;;;;;;;;6074406;23;20057;-82
2022/10/30 03:47:53;;;;;;;22.10;12.43;;;13.70;99.90;;;;;;6074461;23;20022;-82
2022/10/30 03:50:19;;;;;;;27.98;13.02;;;;;;;;;;6098752;23;20029;-82
2022/10/30 03:52:45;;;;;;;28.10;12.13;;;;;;;;;;6098560;23;20041;-82
2022/10/30 03:55:11;;;;;;;20.42;11.65;;;;;;;;;;6098421;23;20439;-82
2022/10/30 03:57:37;;;;;;;21.20;12.80;;;;;;;;;;6098766;23;20101;-82
2022/10/30 04:00:04;;;;;;;29.35;12.55;;;13.60;99.90;;;;;;6074350;23;20018;-82
2022/10/30 04:02:30;;;;;;;24.05;12.38;;;;;;;;;;6098175;23;20081;-82
2022/10/30 04:04:56;;;;;;;20.70;13.20;;;;;;;;;;6074345;23;20439;-82
2022/10/30 04:07:22;;;;;;;23.80;13.38;;;;;;;;;;6074503;23;20052;-82
2022/10/30 04:09:48;;;;;;;25.83;13.40;;;;;;;;;;6098469;23;20037;-82
2022/10/30 04:12:14;;;;;;;22.08;12.65;;;;;;;;;;6074261;23;20460;-82
2022/10/30 04:14:40;;;;;;;33.42;14.15;;;;;;;;;;6098197;23;20475;-81
2022/10/30 04:17:06;;;;;;;28.77;12.30;;;;;;;;;;6097970;23;20451;-82
2022/10/30 04:19:32;;;;;;;26.30;12.75;;;;;;;;;;6098166;23;20029;-81
2022/10/30 04:21:58;;;;;;;36.28;13.88;;;;;;;;;;6074302;23;20022;-81
2022/10/30 04:24:24;;;;;;;21.27;12.75;;;;;;;;;;6074528;23;20339;-82
2022/10/30 04:26:51;;;;;;;25.80;13.40;;;;;;;;;;6074383;23;20018;-82
2022/10/30 04:29:17;;;;;;;21.00;12.60;;;;;;;;;;6098222;23;20014;-82
2022/10/30 04:31:43;;;;;;;21.13;12.85;;;;;;;;;;6074639;23;20028;-82
2022/10/30 04:34:10;;;;;;;21.30;13.02;;;;;;;;;;6098186;23;20404;-82
2022/10/30 04:36:36;;;;;;;25.73;13.18;;;;;;;;;;6098039;23;20057;-82
2022/10/30 04:39:03;;;;;;;23.25;12.70;;;;;;;;;;6099270;23;20018;-82
2022/10/30 04:41:29;;;;;;;22.45;13.43;;;;;;;;;;6099939;23;20022;-82
2022/10/30 04:43:55;;;;;;;22.15;13.00;;;;;;;;;;6075798;23;20068;-82
2022/10/30 04:46:21;;;;;;;19.58;12.32;;;;;;;;;;6099919;23;20344;-82
2022/10/30 04:48:48;;;;;;;22.88;12.52;;;;;;;;;;6075825;23;20477;-82
2022/10/30 04:51:14;;;;;;;24.63;13.43;;;;;;;;;;6075574;23;20480;-82
2022/10/30 04:53:41;;;;;;;35.17;14.10;;;;;;;;;;6099633;23;20065;-82
2022/10/30 04:56:07;;;;;;;30.13;13.60;;;;;;;;;;6075491;23;20053;-82
2022/10/30 04:58:33;;;;;;;21.75;12.38;;;;;;;;;;6099302;23;20459;-82
2022/10/30 05:01:04;;;;;;;25.30;12.63;;;13.60;99.90;;;;;;6099619;23;20022;-82
2022/10/30 05:03:30;;;;;;;27.33;13.13;;;;;;;;;;6098980;23;20018;-82
2022/10/30 05:06:16;;;;;;;23.05;13.32;;;;;;;;;;6099493;23;20029;-82
2022/10/30 05:08:42;;;;;;;23.60;13.43;;;;;;;;;;6099558;23;20030;-82
2022/10/30 05:11:08;;;;;;;21.15;12.48;;;;;;;;;;6099472;23;20025;-82
2022/10/30 05:13:34;;;;;;;27.65;13.13;;;;;;;;;;6075284;23;20419;-82
2022/10/30 05:16:00;;;;;;;24.52;13.20;;;;;;;;;;6099504;23;20502;-82
2022/10/30 05:18:26;;;;;;;19.00;12.95;;;;;;;;;;6099235;23;20097;-82
2022/10/30 05:20:52;;;;;;;23.77;13.63;;;;;;;;;;6075565;23;20022;-82
2022/10/30 05:23:18;;;;;;;29.63;13.68;;;;;;;;;;6075809;23;20399;-82
2022/10/30 05:25:45;;;;;;;26.85;13.02;;;;;;;;;;6099353;23;20480;-82
2022/10/30 05:28:11;;;;;;;25.52;13.80;;;;;;;;;;6099198;23;20069;-83
2022/10/30 05:30:37;;;;;;;26.08;14.05;;;;;;;;;;6099247;23;20018;-82
2022/10/30 05:33:07;;;;;;;23.85;13.55;;;;;;;;;;6099240;23;20014;-82
2022/10/30 05:35:33;;;;;;;21.98;13.25;;;13.40;99.90;;;;;;6074602;23;20032;-82
2022/10/30 05:38:00;;;;;;;28.40;13.15;;;13.30;99.90;;;;;;6075274;23;20354;-82
2022/10/30 05:40:26;;;;;;;23.75;13.07;;;;;;;;;;6125520;23;20065;-82
2022/10/30 05:42:53;;;;;;;23.02;13.75;;;;;;;;;;6125838;23;20021;-82
2022/10/30 05:45:19;;;;;;;26.40;14.00;;;;;;;;;;6099356;23;20018;-82
2022/10/30 05:47:54;;;;;;;24.83;14.25;;;;;;;;;;6098831;23;20022;-82
2022/10/30 05:50:20;;;;;;;27.45;13.55;;;;;;;;;;6074681;23;20020;-82
2022/10/30 05:52:46;;;;;;;24.13;14.43;;;;;;;;;;6098920;23;20058;-82
2022/10/30 05:55:12;;;;;;;28.67;14.77;;;;;;;;;;6075084;23;20045;-82
2022/10/30 05:57:38;;;;;;;26.48;14.55;;;;;;;;;;6075025;23;20017;-82
2022/10/30 06:00:04;;;;;;;24.25;12.35;;;;;;;;;;6098874;23;20477;-82
2022/10/30 06:02:30;;;;;;;25.73;14.40;;;;;;;;;;6098669;23;20097;-81
2022/10/30 06:04:56;;;;;;;21.60;12.20;;;;;;;;;;6098572;23;20022;-81
2022/10/30 06:07:22;;;;;;;28.05;14.32;;;;;;;;;;6099259;23;20025;-81
2022/10/30 06:09:48;;;;;;;27.73;14.25;;;;;;;;;;6098947;23;20014;-81
2022/10/30 06:12:14;;;;;;;25.75;13.85;;;;;;;;;;6074800;23;20390;-82
2022/10/30 06:14:40;;;;;;;28.58;14.32;;;;;;;;;;6098955;23;20018;-81
2022/10/30 06:17:06;;;;;;;24.30;14.85;;;;;;;;;;6099079;23;20025;-81
2022/10/30 06:19:32;;;;;;;27.85;15.00;;;;;;;;;;6075025;23;20090;-81
2022/10/30 06:21:58;;;;;;;27.63;13.95;;;;;;;;;;6074562;23;20021;-82
2022/10/30 06:24:24;;;;;;;22.90;13.75;;;;;;;;;;6074696;23;20407;-81
2022/10/30 06:26:50;;;;;;;19.98;14.35;;;;;;;;;;6074467;23;20053;-82
2022/10/30 06:29:16;;;;;;;30.08;15.00;;;;;;;;;;6074474;23;20523;-82
2022/10/30 06:31:42;;;;;;;28.23;15.18;;;;;;;;;;6074570;23;20030;-82
2022/10/30 06:34:08;;;;;;;25.45;14.55;;;;;;;;;;6098293;23;20514;-82
2022/10/30 06:36:34;;;;;;;27.05;14.82;;;;;;;;;;6098670;23;20026;-81
2022/10/30 06:39:01;;;;;;;23.63;15.27;;;;;;;;;;6099041;23;20072;-82
2022/10/30 06:41:28;;;;;;;27.83;14.07;;;;;;;;;;6074700;23;20026;-82
2022/10/30 06:43:54;;;;;;;21.77;14.35;;;;;;;;;;6098555;23;20466;-82
2022/10/30 06:46:20;;;;;;;27.00;13.88;;;;;;;;;;6074627;23;20096;-83
2022/10/30 06:48:49;;;;;;;28.77;13.98;;;;;;;;;;6124651;23;20318;-82
2022/10/30 06:51:15;;;;;;;23.25;14.80;;;;;;;;;;6074396;23;20025;-82
2022/10/30 06:53:41;;;;;;;21.08;14.52;;;;;;;;;;6098625;23;20029;-82
2022/10/30 06:56:08;;;;;;;30.35;15.65;;;13.00;99.90;;;;;;6098429;23;20104;-82
2022/10/30 06:58:37;;;;;;;24.25;14.63;;;;;;;;;;6098402;23;20021;-82
2022/10/30 07:01:05;;;;;;;28.85;14.90;;;12.70;99.90;;;;;;6098082;23;20018;-82
2022/10/30 07:03:31;;;;;;;28.00;14.40;;;;;;;;;;6073780;23;20018;-82
2022/10/30 07:05:57;;;;;;;29.33;15.45;;;;;;;;;;6098208;23;20022;-81
2022/10/30 07:08:23;;;;;;;25.15;15.45;;;;;;;;;;6074665;23;20097;-82
2022/10/30 07:10:50;;;;;;;27.45;16.45;;;;;;;;;;6098203;23;20108;-82
2022/10/30 07:13:17;;;;;;;26.70;16.05;;;;;;;;;;6074498;23;20018;-82
2022/10/30 07:15:43;;;;;;;25.35;15.25;;;;;;;;;;6074299;23;20026;-82
2022/10/30 07:18:10;;;;;;;25.83;14.95;;;;;;;;;;6098227;23;20014;-82
2022/10/30 07:20:36;;;;;;;25.95;13.80;;;;;;;;;;6098346;23;20021;-82
2022/10/30 07:23:03;;;;;;;25.30;13.52;;;;;;;;;;6074486;23;20018;-82
2022/10/30 07:25:29;;;;;;;21.80;14.07;;;12.60;99.90;;;;;;6074202;23;20022;-82
2022/10/30 07:27:56;;;;;;;26.90;14.50;;;12.60;99.90;;;;;;6098575;23;20024;-82
2022/10/30 07:30:23;;;;;;;27.80;14.38;;;;;;;;;;6098080;23;20021;-82
2022/10/30 07:33:00;;;;;;;30.92;13.60;;;12.60;99.90;;;;;;6074102;23;20474;-82
2022/10/30 07:35:26;;;;;;;26.38;14.80;;;;;;;;;;6097634;23;20018;-82
2022/10/30 07:37:52;;;;;;;22.52;13.57;;;;;;;;;;6074340;23;20022;-82
2022/10/30 07:40:21;;;;;;;25.13;14.82;;;;;;;;;;6097876;23;20028;-82
2022/10/30 07:42:48;;;;;;;24.95;13.90;;;;;;;;;;6098364;23;20330;-82
2022/10/30 07:45:14;;;;;;;26.17;13.77;;;;;;;;;;6074350;23;20093;-82
2022/10/30 07:47:41;;;;;;;24.25;14.35;;;;;;;;;;6074200;23;20057;-82
2022/10/30 07:50:07;;;;;;;23.63;14.40;;;;;;;;;;6074216;23;20085;-82
2022/10/30 07:52:36;;;;;;;28.75;14.38;;;;;;;;;;6099550;23;20029;-82
2022/10/30 07:55:03;;;;;;;26.17;15.07;;;13.10;99.90;;;;;;6098358;23;20523;-82
2022/10/30 07:57:41;;;;;;;25.73;15.32;;;13.00;99.90;;;;;;6074871;23;20077;-82
2022/10/30 08:00:11;;;;;;;28.55;14.85;;;;;;;;;;6074107;23;20025;-82
2022/10/30 08:02:38;;;;;;;23.48;14.60;;;;;;;;;;6098565;23;20495;-82
2022/10/30 08:05:04;;;;;;;25.88;13.95;;;;;;;;;;6074047;23;20018;-82
2022/10/30 08:07:32;;;;;;;26.98;14.43;;;;;;;;;;6097828;23;20018;-82
2022/10/30 08:10:02;;;;;;;26.77;15.57;;;;;;;;;;6099165;23;20021;-82
2022/10/30 08:12:28;;;;;;;23.65;14.60;;;;;;;;;;6074258;23;20010;-82
2022/10/30 08:14:54;;;;;;;29.13;15.43;;;;;;;;;;6125933;23;20355;-81
2022/10/30 08:17:20;;;;;;;29.55;14.98;;;;;;;;;;6126014;23;20026;-82
2022/10/30 08:19:46;;;;;;;25.67;14.07;;;;;;;;;;6075844;23;20017;-83
2022/10/30 08:22:13;;;;;;;21.67;13.70;;;;;;;;;;6125702;23;20045;-82
2022/10/30 08:24:39;;;;;;;26.70;14.43;;;;;;;;;;6100459;23;20093;-82
2022/10/30 08:27:05;;;;;;;24.92;14.68;;;;;;;;;;6100392;23;20018;-82
2022/10/30 08:29:33;;;;;;;26.25;15.57;;;;;;;;;;6100304;23;20033;-82
2022/10/30 08:31:59;;;;;;;25.40;14.10;;;;;;;;;;6075646;23;20085;-82
2022/10/30 08:34:26;;;;;;;22.52;12.93;;;;;;;;;;6125979;23;20344;-82
2022/10/30 08:36:52;;;;;;;28.27;13.85;;;;;;;;;;6125910;23;20064;-82
2022/10/30 08:39:19;;;;;;;36.13;14.35;;;;;;;;;;6100161;23;20026;-82
2022/10/30 08:41:45;;;;;;;23.77;14.63;;;;;;;;;;6076134;23;20033;-82
2022/10/30 08:44:11;;;;;;;32.83;13.98;;;;;;;;;;6100327;23;20021;-82
2022/10/30 08:46:37;;;;;;;24.45;14.77;;;;;;;;;;6075967;23;20021;-82
2022/10/30 08:49:04;;;;;;;26.45;13.55;;;;;;;;;;6126352;23;20061;-82
2022/10/30 08:51:34;;;;;;;23.15;14.00;;;;;;;;;;6075420;23;20359;-82
2022/10/30 08:54:00;;;;;;;32.83;16.33;;;;;;;;;;6099689;23;20025;-82
2022/10/30 08:56:27;;;;;;;28.15;14.98;;;;;;;;;;6100020;23;20316;-82
2022/10/30 08:58:53;;;;;;;30.50;14.75;;;;;;;;;;6075328;23;20447;-82
2022/10/30 09:01:19;;;;;;;28.67;14.98;;;;;;;;;;6075468;23;20018;-82
2022/10/30 09:03:46;;;;;;;28.92;14.77;;;;;;;;;;6099565;23;20049;-82
2022/10/30 09:06:12;;;;;;;18.20;13.38;;;;;;;;;;6099445;23;20463;-82
2022/10/30 09:08:39;;;;;;;28.42;14.23;;;;;;;;;;6099418;23;20044;-82
2022/10/30 09:11:05;;;;;;;24.27;13.13;;;;;;;;;;6075427;23;20026;-82
2022/10/30 09:13:31;;;;;;;24.92;14.02;;;;;;;;;;6099473;23;20463;-82
2022/10/30 09:16:00;;;;;;;23.95;14.73;;;;;;;;;;6075158;23;20531;-83
2022/10/30 09:18:26;;;;;;;21.38;13.88;;;;;;;;;;6099260;23;20018;-83
2022/10/30 09:20:52;;;;;;;24.02;15.40;;;;;;;;;;6099387;23;20057;-83
2022/10/30 09:23:18;;;;;;;29.05;15.00;;;;;;;;;;6075003;23;20014;-83
2022/10/30 09:25:44;;;;;;;25.27;15.25;;;;;;;;;;6075331;23;20029;-83
2022/10/30 09:28:10;;;;;;;24.08;14.38;;;;;;;;;;6099321;23;20018;-83
2022/10/30 09:30:36;;;;;;;24.02;13.80;;;;;;;;;;6098982;23;20097;-83
2022/10/30 09:33:03;;;;;;;28.35;14.35;;;;;;;;;;6075259;23;20061;-82
2022/10/30 09:35:29;;;;;;;26.92;13.70;;;;;;;;;;6063977;23;20014;-82
2022/10/30 09:37:55;;;;;;;23.65;13.02;;;15.20;99.90;;;;;;6069796;23;20031;-82
2022/10/30 09:40:31;;;;;;;28.70;14.75;;;;;;;;;;6070676;23;20037;-82
2022/10/30 09:43:09;;;;;;;30.27;14.07;;;15.30;99.90;;;;;;6046206;23;20018;-82
2022/10/30 09:45:35;;;;;;;21.08;14.50;;;;;;;;;;6046436;23;20015;-82
2022/10/30 09:48:11;;;;;;;42.35;14.57;;;;;;;;;;6069992;23;20400;-81
2022/10/30 09:50:58;;;;;;;22.95;14.05;;;15.40;99.90;;;;;;6069970;23;20077;-81
2022/10/30 09:53:37;;;;;;;26.35;15.18;;;15.50;99.90;;;;;;6070233;23;20077;-81
2022/10/30 09:56:08;;;;;;;22.52;12.23;;;;;;;;;;6045893;23;20019;-81
2022/10/30 09:59:12;;;;;;;20.13;13.00;;;15.60;99.90;;;;;;6070203;23;20355;-81
2022/10/30 10:01:51;;;;;;;21.05;13.40;;;15.70;99.90;;;;;;5955874;24;20053;-81
2022/10/30 10:04:17;;;;;;;24.55;15.25;;;;;;;;;;5955174;24;20024;-81
2022/10/30 10:06:47;;;;;;;21.50;14.57;;;15.80;99.90;;;;;;5955680;24;20024;-81
2022/10/30 10:09:22;;;;;;;23.10;13.63;;;15.60;99.90;;;;;;5955513;24;20043;-81
2022/10/30 10:11:56;;;;;;;19.48;11.40;;;16.00;99.90;;;;;;5932664;24;20445;-81
2022/10/30 10:14:33;;;;;;;25.95;13.85;;;15.80;99.90;;;;;;5955887;24;20059;-81
2022/10/30 10:17:02;;;;;;;24.60;13.70;;;15.90;99.90;;;;;;5955978;24;20051;-81
2022/10/30 10:19:34;;;;;;;27.38;13.95;;;16.10;99.90;;;;;;5932146;24;20057;-81
2022/10/30 10:22:05;;;;;;;27.85;13.52;;;16.10;99.90;;;;;;5955172;24;20021;-81
2022/10/30 10:24:43;;;;;;;25.80;13.05;;;16.20;99.90;;;;;;5955383;24;20039;-81
2022/10/30 10:27:39;;;;;;;31.77;14.85;;;16.20;99.90;;;;;;5932605;24;20026;-81
2022/10/30 10:30:19;;;;;;;29.55;13.57;;;16.20;99.90;;;;;;5955489;24;20024;-81
2022/10/30 10:32:45;;;;;;;24.92;13.45;;;;;;;;;;5955566;24;20324;-81
2022/10/30 10:35:44;;;;;;;22.45;12.63;;;16.30;99.90;;;;;;5986124;23;20331;-81
2022/10/30 10:38:38;;;;;;;21.67;12.27;;;16.40;99.90;;;;;;6059773;23;20037;-81
2022/10/30 10:41:34;;;;;;;29.27;13.75;;;16.40;99.90;;;;;;6038529;23;20029;-81
2022/10/30 10:44:32;;;;;;;25.35;13.38;;;16.50;99.90;;;;;;6069728;23;20349;-81
2022/10/30 10:47:23;;;;;;;26.50;13.85;;;16.70;99.90;;;;;;6064312;23;20023;-82
2022/10/30 10:50:18;;;;;;;19.42;12.65;;;16.60;99.90;;;;;;6070342;23;20506;-82
2022/10/30 10:53:06;;;;;;;16.50;12.05;;;16.80;99.90;;;;;;6045922;23;20510;-82
2022/10/30 10:55:35;;;;;;;25.27;11.60;;;16.70;99.90;;;;;;6069536;23;20113;-82
2022/10/30 10:58:14;;;;;;;27.65;11.68;;;16.90;99.90;;;;;;6045961;23;20045;-82
2022/10/30 11:00:40;;;;;;;24.85;12.52;;;;;;;;;;6069499;23;20474;-82
2022/10/30 11:03:12;;;;;;;22.08;13.73;;;17.30;99.90;;;;;;6069985;23;20073;-82
2022/10/30 11:05:50;;;;;;;25.45;11.70;;;17.10;99.90;;;;;;6069637;23;20022;-82
2022/10/30 11:08:28;;;;;;;21.83;11.70;;;17.20;99.90;;;;;;6045463;23;20329;-83
2022/10/30 11:11:04;;;;;;;16.10;11.18;;;16.90;99.90;;;;;;6046002;23;20022;-83
2022/10/30 11:13:35;;;;;;;26.08;11.63;;;17.30;99.90;;;;;;6070602;23;20081;-84
2022/10/30 11:16:25;;;;;;;18.20;11.07;;;17.20;99.90;;;;;;6023867;23;20018;-82
2022/10/30 11:18:56;;;;;;;22.77;12.38;;;17.20;99.90;;;;;;6069413;23;20060;-82
2022/10/30 11:21:24;;;;;;;22.67;10.43;;;17.40;99.90;;;;;;6070168;23;20026;-83
2022/10/30 11:23:52;;;;;;;19.20;10.52;;;17.50;99.90;;;;;;6069425;23;20070;-81
2022/10/30 11:26:19;;;;;;;14.27;9.55;;;;;;;;;;6069326;23;20018;-81
2022/10/30 11:29:11;;;;;;;30.55;10.98;;;17.40;99.90;;;;;;6046060;23;20050;-83
2022/10/30 11:31:46;;;;;;;16.58;9.77;;;17.70;99.90;;;;;;6045283;23;20440;-85
2022/10/30 11:34:17;;;;;;;27.05;9.65;;;17.50;99.90;;;;;;6046484;23;20053;-83
2022/10/30 11:36:54;;;;;;;18.75;9.25;;;18.00;99.90;;;;;;6069231;23;20298;-83
2022/10/30 11:39:28;;;;;;;22.10;9.75;;;18.00;99.90;;;;;;6021359;23;20456;-80
2022/10/30 11:42:11;;;;;;;19.42;9.52;;;18.00;99.90;;;;;;6069566;23;20022;-79
2022/10/30 11:44:42;;;;;;;15.80;9.02;;;18.10;99.90;;;;;;6069638;23;20019;-80
2022/10/30 11:47:10;;;;;;;18.17;10.85;;;17.80;99.90;;;;;;6045452;23;20523;-79
2022/10/30 11:49:44;;;;;;;20.67;10.13;;;18.10;99.90;;;;;;6070365;23;20025;-79
2022/10/30 11:52:12;;;;;;;21.08;10.77;;;18.10;99.90;;;;;;6071230;23;20022;-79
2022/10/30 11:54:47;;;;;;;22.73;9.63;;;18.20;99.90;;;;;;6046999;23;20119;-80
2022/10/30 11:57:36;;;;;;;20.15;10.65;;;18.30;99.90;;;;;;6071325;23;20030;-79
2022/10/30 12:00:06;;;;;;;16.08;9.73;;;18.50;99.90;;;;;;6071420;23;20015;-83
2022/10/30 12:02:41;;;;;;;21.92;10.82;;;18.40;99.90;;;;;;6071288;23;20026;-82
2022/10/30 12:05:40;;;;;;;24.92;12.10;;;18.20;99.90;;;;;;6047324;23;20029;-83
2022/10/30 12:08:06;;;;;;;20.50;10.80;;;;;;;;;;6071196;23;20018;-84
2022/10/30 12:10:44;;;;;;;20.95;11.18;;;18.50;99.90;;;;;;6071216;23;20124;-85
2022/10/30 12:13:19;;;;;;;15.55;9.88;;;18.50;99.90;;;;;;6070895;23;20022;-82
2022/10/30 12:15:48;;;;;;;25.13;11.18;;;18.70;99.90;;;;;;6071346;23;20025;-82
2022/10/30 12:18:21;;;;;;;25.23;9.60;;;18.70;99.90;;;;;;6071150;23;20535;-83
2022/10/30 12:20:51;;;;;;;18.67;10.18;;;18.70;99.90;;;;;;6047877;23;20113;-82
2022/10/30 12:23:24;;;;;;;19.52;10.70;;;18.80;99.90;;;;;;6071674;23;20019;-83
2022/10/30 12:26:11;;;;;;;17.70;9.93;;;18.50;99.90;;;;;;6071187;23;20029;-83
2022/10/30 12:28:39;;;;;;;20.20;11.70;;;18.60;99.90;;;;;;6047484;23;20034;-83
2022/10/30 12:31:11;;;;;;;16.13;9.52;;;18.70;99.90;;;;;;6071616;23;20054;-83
2022/10/30 12:34:00;;;;;;;21.35;10.30;;;18.70;99.90;;;;;;6071275;23;20472;-82
2022/10/30 12:36:32;;;;;;;16.80;8.57;;;18.80;99.90;;;;;;6046878;23;20022;-83
2022/10/30 12:39:22;;;;;;;19.27;9.90;;;18.70;99.90;;;;;;6071139;23;20021;-83
2022/10/30 12:42:03;;;;;;;20.05;9.57;;;18.90;99.90;;;;;;5956718;24;20056;-82
2022/10/30 12:44:45;;;;;;;20.90;9.85;;;18.80;99.90;;;;;;5934214;24;20020;-83
2022/10/30 12:47:17;;;;;;;21.70;10.25;;;18.80;99.90;;;;;;5952035;24;20055;-82
2022/10/30 12:49:59;;;;;;;17.20;9.48;;;18.80;99.90;;;;;;5933470;24;20053;-82
2022/10/30 12:52:36;;;;;;;21.45;10.48;;;18.80;99.90;;;;;;5978971;24;20031;-83
2022/10/30 12:55:17;;;;;;;18.88;10.07;;;18.70;99.90;;;;;;5933855;24;20117;-82
2022/10/30 12:57:59;;;;;;;23.70;12.00;;;18.80;99.90;;;;;;5933222;24;20052;-82
2022/10/30 13:00:28;;;;;;;18.48;10.55;;;18.90;99.90;;;;;;5952118;24;20469;-83
2022/10/30 13:03:04;;;;;;;15.88;9.80;;;18.90;99.90;;;;;;5956339;24;20023;-82
2022/10/30 13:05:47;;;;;;;19.27;10.27;;;18.70;99.90;;;;;;5956849;24;20524;-80
2022/10/30 13:08:26;;;;;;;16.52;9.93;;;18.70;99.90;;;;;;5956566;24;20031;-82
2022/10/30 13:11:02;;;;;;;18.25;9.75;;;18.70;99.90;;;;;;5956543;24;20051;-81
2022/10/30 13:13:38;;;;;;;18.08;9.25;;;18.80;99.90;;;;;;5978461;24;20023;-84
2022/10/30 13:16:11;;;;;;;19.83;10.98;;;18.70;99.90;;;;;;5933284;24;20104;-81
2022/10/30 13:18:37;;;;;;;16.65;10.27;;;18.80;99.90;;;;;;5978402;23;20026;-82
2022/10/30 13:21:20;;;;;;;18.35;9.82;;;19.10;99.90;;;;;;6070415;23;20021;-80
2022/10/30 13:24:09;;;;;;;18.60;9.82;;;18.90;99.90;;;;;;6046546;23;20105;-82
2022/10/30 13:26:51;;;;;;;16.13;9.82;;;18.90;99.90;;;;;;6070383;23;20074;-82
2022/10/30 13:29:38;;;;;;;14.27;9.02;;;18.80;99.90;;;;;;6070256;23;20025;-83
2022/10/30 13:32:39;;;;;;;24.60;10.85;;;18.90;99.90;;;;;;6046399;23;20023;-83
2022/10/30 13:35:41;;;;;;;18.33;8.65;;;19.40;99.90;;;;;;6069854;23;20101;-79
2022/10/30 13:38:07;;;;;;;19.48;8.70;;;;;;;;;;6070310;23;20049;-83
2022/10/30 13:40:49;;;;;;;13.50;8.68;;;19.00;99.90;;;;;;6046110;23;20101;-80
2022/10/30 13:44:03;;;;;;;18.13;8.68;;;19.00;99.90;;;;;;6070349;23;20026;-81
2022/10/30 13:46:49;;;;;;;17.42;9.18;;;19.00;99.90;;;;;;5955780;23;20028;-82
2022/10/30 13:49:42;;;;;;;15.00;8.13;;;18.80;99.90;;;;;;5932856;24;20023;-83